createdAt,value
2022-10-16T00:01:40.063Z,100667.88
2022-10-16T00:04:09.463Z,100621.19
2022-10-16T00:06:36.243Z,100748.53
2022-10-16T00:09:06.427Z,100661.31
2022-10-16T00:11:37.804Z,100731.94
2022-10-16T00:14:07.954Z,100644.56
2022-10-16T00:16:35.215Z,100718.69
2022-10-16T00:19:01.998Z,100733.47
2022-10-16T00:21:30.231Z,100659.50
2022-10-16T00:24:00.244Z,100738.72
2022-10-16T00:26:27.909Z,100729.00
2022-10-16T00:28:54.670Z,100711.16
2022-10-16T00:31:23.233Z,100734.22
2022-10-16T00:33:50.389Z,100756.13
2022-10-16T00:36:22.523Z,100758.69
2022-10-16T00:38:54.698Z,100759.59
2022-10-16T00:41:22.554Z,100757.84
2022-10-16T00:43:49.135Z,100754.31
2022-10-16T00:46:23.142Z,100756.72
2022-10-16T00:49:01.793Z,100744.25
2022-10-16T00:51:48.204Z,100760.13
2022-10-16T00:54:17.550Z,100760.81
2022-10-16T00:56:48.444Z,100679.63
2022-10-16T00:59:28.456Z,100654.00
2022-10-16T01:01:55.803Z,100675.81
2022-10-16T01:04:23.211Z,100770.28
2022-10-16T01:07:08.547Z,100771.34
2022-10-16T01:09:48.271Z,100780.13
2022-10-16T01:12:38.698Z,100696.41
2022-10-16T01:15:17.883Z,100773.97
2022-10-16T01:17:57.656Z,100775.72
2022-10-16T01:20:31.526Z,100773.91
2022-10-16T01:23:11.861Z,100767.63
2022-10-16T01:26:00.431Z,100782.50
2022-10-16T01:28:34.666Z,100781.53
2022-10-16T01:31:02.774Z,100738.03
2022-10-16T01:36:32.384Z,100705.25
2022-10-16T01:39:02.249Z,100752.78
2022-10-16T01:41:35.280Z,100698.84
2022-10-16T01:44:11.802Z,100684.72
2022-10-16T01:46:41.109Z,100800.97
2022-10-16T01:49:12.586Z,100799.19
2022-10-16T01:51:40.042Z,100733.66
2022-10-16T01:54:09.368Z,100755.50
2022-10-16T01:56:36.023Z,100810.19
2022-10-16T01:59:07.443Z,100817.06
2022-10-16T02:01:35.757Z,100726.91
2022-10-16T02:04:10.696Z,100822.91
2022-10-16T02:06:37.793Z,100757.50
2022-10-16T02:09:04.474Z,100809.38
2022-10-16T02:11:31.192Z,100835.56
2022-10-16T02:14:05.291Z,100684.50
2022-10-16T02:16:43.512Z,100801.13
2022-10-16T02:19:14.188Z,100810.69
2022-10-16T02:21:47.055Z,100695.94
2022-10-16T02:24:31.274Z,100814.19
2022-10-16T02:27:04.013Z,100817.50
2022-10-16T02:29:32.054Z,100767.13
2022-10-16T02:32:04.060Z,100815.59
2022-10-16T02:34:34.919Z,100729.03
2022-10-16T02:37:09.840Z,100795.66
2022-10-16T02:39:36.554Z,100755.25
2022-10-16T02:42:05.994Z,100734.75
2022-10-16T02:44:32.776Z,100825.66
2022-10-16T02:47:02.238Z,100830.97
2022-10-16T02:49:28.985Z,100790.38
2022-10-16T02:51:55.866Z,100746.22
2022-10-16T02:54:22.579Z,100693.31
2022-10-16T02:56:49.825Z,100820.22
2022-10-16T02:59:16.786Z,100756.56
2022-10-16T03:01:43.516Z,100834.28
2022-10-16T03:04:10.235Z,100767.09
2022-10-16T03:06:37.273Z,100839.41
2022-10-16T03:09:03.946Z,100795.22
2022-10-16T03:11:32.703Z,100735.88
2022-10-16T03:13:59.377Z,100741.09
2022-10-16T03:16:26.052Z,100810.84
2022-10-16T03:18:52.735Z,100724.97
2022-10-16T03:21:19.448Z,100754.09
2022-10-16T03:23:46.112Z,100777.13
2022-10-16T03:26:12.807Z,100795.78
2022-10-16T03:28:39.487Z,100861.69
2022-10-16T03:31:11.452Z,100804.19
2022-10-16T03:33:38.166Z,100873.88
2022-10-16T03:36:04.937Z,100830.56
2022-10-16T03:38:31.610Z,100838.56
2022-10-16T03:40:58.351Z,100846.16
2022-10-16T03:43:25.070Z,100855.94
2022-10-16T03:45:54.934Z,100854.03
2022-10-16T03:48:21.711Z,100875.00
2022-10-16T03:50:49.419Z,100792.38
2022-10-16T03:53:16.424Z,100846.41
2022-10-16T03:55:43.796Z,100874.75
2022-10-16T03:58:10.614Z,100788.91
2022-10-16T04:00:37.356Z,100845.44
2022-10-16T04:03:06.536Z,100876.94
2022-10-16T04:05:33.198Z,100784.72
2022-10-16T04:08:02.944Z,100830.53
2022-10-16T04:10:34.065Z,100886.81
2022-10-16T04:13:00.778Z,100822.00
2022-10-16T04:15:27.499Z,100852.94
2022-10-16T04:17:56.514Z,100874.06
2022-10-16T04:20:23.292Z,100877.34
2022-10-16T04:22:49.939Z,100908.94
2022-10-16T04:25:16.700Z,100873.97
2022-10-16T04:27:46.292Z,100858.78
2022-10-16T04:30:15.824Z,100812.13
2022-10-16T04:32:42.603Z,100890.84
2022-10-16T04:35:12.129Z,100804.09
2022-10-16T04:37:39.023Z,100904.59
2022-10-16T04:40:06.219Z,100902.81
2022-10-16T04:42:35.261Z,100910.56
2022-10-16T04:45:02.332Z,100847.94
2022-10-16T04:47:32.174Z,100815.31
2022-10-16T04:50:03.534Z,100784.53
2022-10-16T04:52:30.496Z,100794.97
2022-10-16T04:55:02.630Z,100909.09
2022-10-16T04:57:30.707Z,100825.56
2022-10-16T04:59:58.361Z,100811.41
2022-10-16T05:02:25.256Z,100897.69
2022-10-16T05:04:52.641Z,100892.47
2022-10-16T05:07:22.016Z,100915.47
2022-10-16T05:09:48.808Z,100792.44
2022-10-16T05:12:18.339Z,100862.09
2022-10-16T05:14:45.114Z,100871.63
2022-10-16T05:17:12.517Z,100812.38
2022-10-16T05:19:39.795Z,100923.03
2022-10-16T05:22:10.083Z,100815.00
2022-10-16T05:24:37.187Z,100832.66
2022-10-16T05:27:04.332Z,100846.72
2022-10-16T05:29:35.248Z,100940.34
2022-10-16T05:32:04.667Z,100697.78
2022-10-16T05:34:31.665Z,100802.34
2022-10-16T05:37:02.715Z,100917.22
2022-10-16T05:39:35.913Z,100816.50
2022-10-16T05:42:12.141Z,100944.97
2022-10-16T05:44:41.490Z,100923.72
2022-10-16T05:47:11.812Z,100952.94
2022-10-16T05:49:41.315Z,100850.41
2022-10-16T05:52:08.661Z,100919.38
2022-10-16T05:54:35.446Z,100949.66
2022-10-16T05:57:03.205Z,100720.56
2022-10-16T05:59:29.880Z,100957.69
2022-10-16T06:01:59.020Z,100858.41
2022-10-16T06:04:25.707Z,100872.50
2022-10-16T06:06:54.889Z,100913.53
2022-10-16T06:09:23.865Z,100956.94
2022-10-16T06:11:52.730Z,100980.88
2022-10-16T06:14:21.740Z,100959.81
2022-10-16T06:16:48.453Z,100879.41
2022-10-16T06:19:16.351Z,100945.91
2022-10-16T06:21:45.747Z,100982.16
2022-10-16T06:24:15.021Z,100931.59
2022-10-16T06:26:44.087Z,100899.81
2022-10-16T06:29:12.917Z,100970.66
2022-10-16T06:31:41.644Z,100998.19
2022-10-16T06:34:12.388Z,100903.41
2022-10-16T06:36:42.268Z,100845.06
2022-10-16T06:39:13.728Z,100966.41
2022-10-16T06:41:42.849Z,100890.38
2022-10-16T06:44:15.916Z,100892.50
2022-10-16T06:46:42.574Z,100981.91
2022-10-16T06:49:11.626Z,101026.06
2022-10-16T06:51:43.355Z,100966.88
2022-10-16T06:54:11.324Z,100979.50
2022-10-16T06:56:38.740Z,100968.16
2022-10-16T06:59:07.795Z,100970.00
2022-10-16T07:01:34.552Z,101028.47
2022-10-16T07:04:02.207Z,101016.88
2022-10-16T07:06:34.132Z,101034.66
2022-10-16T07:09:05.766Z,101036.59
2022-10-16T07:11:40.734Z,100982.75
2022-10-16T07:14:21.367Z,101049.16
2022-10-16T07:16:48.948Z,101035.03
2022-10-16T07:19:17.970Z,101057.28
2022-10-16T07:21:47.746Z,100937.94
2022-10-16T07:24:17.477Z,100972.50
2022-10-16T07:26:47.977Z,100960.50
2022-10-16T07:29:20.993Z,101063.97
2022-10-16T07:31:48.274Z,101081.28
2022-10-16T07:34:17.578Z,101074.97
2022-10-16T07:36:50.674Z,101078.50
2022-10-16T07:39:27.245Z,101086.63
2022-10-16T07:41:54.235Z,100987.06
2022-10-16T07:44:23.994Z,101064.00
2022-10-16T07:46:50.727Z,101018.22
2022-10-16T07:49:17.544Z,101084.75
2022-10-16T07:51:44.205Z,101037.94
2022-10-16T07:54:11.462Z,101001.22
2022-10-16T07:56:43.693Z,100984.63
2022-10-16T07:59:12.532Z,101087.44
2022-10-16T08:01:44.443Z,101086.66
2022-10-16T08:04:18.588Z,101091.03
2022-10-16T08:06:45.421Z,101080.38
2022-10-16T08:09:24.222Z,101089.44
2022-10-16T08:12:11.469Z,101070.09
2022-10-16T08:14:48.498Z,101069.34
2022-10-16T08:17:18.501Z,101021.75
2022-10-16T08:19:51.257Z,101099.66
2022-10-16T08:22:30.304Z,101102.50
2022-10-16T08:24:59.455Z,100996.25
2022-10-16T08:27:26.431Z,101116.88
2022-10-16T08:29:53.259Z,101063.22
2022-10-16T08:32:25.298Z,101045.75
2022-10-16T08:34:55.334Z,101066.94
2022-10-16T08:37:24.316Z,101065.19
2022-10-16T08:39:51.658Z,101060.75
2022-10-16T08:42:46.005Z,101128.34
2022-10-16T08:45:31.012Z,101131.09
2022-10-16T08:48:09.840Z,101125.13
2022-10-16T08:50:39.487Z,101126.13
2022-10-16T08:53:16.244Z,101121.00
2022-10-16T08:55:45.440Z,101125.53
2022-10-16T08:58:24.611Z,101105.38
2022-10-16T09:01:04.915Z,101133.81
2022-10-16T09:03:53.929Z,101072.03
2022-10-16T09:06:37.295Z,101082.44
2022-10-16T09:09:27.584Z,101138.28
2022-10-16T09:11:59.001Z,101136.00
2022-10-16T09:14:59.503Z,101138.84
2022-10-16T09:17:51.071Z,101133.88
2022-10-16T09:20:29.901Z,101129.69
2022-10-16T09:23:34.300Z,101026.56
2022-10-16T09:26:04.770Z,101102.75
2022-10-16T09:28:31.554Z,101002.28
2022-10-16T09:30:58.408Z,101072.06
2022-10-16T09:33:30.499Z,101056.34
2022-10-16T09:35:59.813Z,100976.09
2022-10-16T09:38:32.161Z,101057.31
2022-10-16T09:41:03.602Z,101097.00
2022-10-16T09:43:42.331Z,101132.34
2022-10-16T09:46:33.824Z,101067.16
2022-10-16T09:49:01.526Z,101049.78
2022-10-16T09:51:34.073Z,101139.00
2022-10-16T09:54:14.538Z,101138.22
2022-10-16T09:56:41.501Z,101047.63
2022-10-16T09:59:21.339Z,101138.50
2022-10-16T10:01:52.901Z,101122.84
2022-10-16T10:04:24.669Z,101109.84
2022-10-16T10:07:00.585Z,101110.81
2022-10-16T10:09:30.531Z,101151.47
2022-10-16T10:12:06.112Z,101116.44
2022-10-16T10:14:42.831Z,101121.78
2022-10-16T10:17:20.667Z,101041.69
2022-10-16T10:19:56.675Z,101122.69
2022-10-16T10:22:29.245Z,101118.25
2022-10-16T10:25:01.105Z,101116.50
2022-10-16T10:27:48.273Z,101039.94
2022-10-16T10:30:26.288Z,101113.91
2022-10-16T10:33:13.064Z,101113.00
2022-10-16T10:36:15.793Z,101097.13
2022-10-16T10:38:54.854Z,101035.53
2022-10-16T10:41:27.835Z,101109.38
2022-10-16T10:44:06.473Z,101115.50
2022-10-16T10:46:48.768Z,100970.38
2022-10-16T10:49:21.269Z,100962.47
2022-10-16T10:52:06.433Z,101119.91
2022-10-16T10:54:52.084Z,101111.97
2022-10-16T10:57:45.746Z,101059.19
2022-10-16T11:00:24.557Z,101018.75
2022-10-16T11:03:22.274Z,101111.03
2022-10-16T11:05:59.722Z,101052.91
2022-10-16T11:08:50.127Z,101064.09
2022-10-16T11:11:24.651Z,101022.53
2022-10-16T11:13:57.924Z,101081.09
2022-10-16T11:16:30.217Z,101098.50
2022-10-16T11:19:22.431Z,101093.47
2022-10-16T11:22:00.570Z,100945.72
2022-10-16T11:24:45.021Z,101012.16
2022-10-16T11:27:18.141Z,100794.28
2022-10-16T11:29:52.455Z,101018.66
2022-10-16T11:32:32.528Z,101052.66
2022-10-16T11:35:12.572Z,101079.53
2022-10-16T11:37:51.119Z,101043.38
2022-10-16T11:40:47.224Z,101052.03
2022-10-16T11:43:19.355Z,101085.25
2022-10-16T11:45:56.140Z,101077.75
2022-10-16T11:48:27.057Z,101066.53
2022-10-16T11:51:12.116Z,101084.84
2022-10-16T11:54:03.349Z,101084.00
2022-10-16T11:56:33.837Z,101008.78
2022-10-16T11:59:00.525Z,101069.34
2022-10-16T12:01:34.727Z,101070.53
2022-10-16T12:04:16.748Z,101066.13
2022-10-16T12:07:13.643Z,101067.69
2022-10-16T12:09:41.233Z,100971.13
2022-10-16T12:12:29.152Z,101064.56
2022-10-16T12:18:23.662Z,100987.44
2022-10-16T12:21:05.476Z,100909.47
2022-10-16T12:23:42.103Z,101054.03
2022-10-16T12:26:08.814Z,101002.97
2022-10-16T12:28:41.591Z,100995.63
2022-10-16T12:31:13.267Z,101057.38
2022-10-16T12:33:58.073Z,101009.25
2022-10-16T12:36:33.474Z,101050.47
2022-10-16T12:39:00.571Z,100967.31
2022-10-16T12:41:34.066Z,101055.59
2022-10-16T12:44:06.596Z,100983.13
2022-10-16T12:46:38.414Z,101054.91
2022-10-16T12:49:13.282Z,101055.84
2022-10-16T12:51:41.215Z,101066.44
2022-10-16T12:54:10.112Z,101060.91
2022-10-16T12:57:00.395Z,101063.03
2022-10-16T13:00:03.842Z,101063.63
2022-10-16T13:03:01.508Z,101069.16
2022-10-16T13:05:46.067Z,100963.94
2022-10-16T13:08:34.179Z,101071.19
2022-10-16T13:11:19.894Z,101075.84
2022-10-16T13:14:20.693Z,101069.09
2022-10-16T13:17:10.686Z,101067.06
2022-10-16T13:19:55.416Z,100986.78
2022-10-16T13:22:56.594Z,101068.13
2022-10-16T13:25:33.460Z,101071.16
2022-10-16T13:28:06.976Z,101047.25
2022-10-16T13:30:41.484Z,101078.25
2022-10-16T13:33:19.095Z,101079.72
2022-10-16T13:35:58.634Z,101076.03
2022-10-16T13:38:31.676Z,101057.09
2022-10-16T13:41:00.062Z,101072.41
2022-10-16T13:43:39.984Z,101077.22
2022-10-16T13:46:15.759Z,101067.34
2022-10-16T13:48:43.050Z,100965.59
2022-10-16T13:51:18.491Z,100971.97
2022-10-16T13:53:50.001Z,100935.03
2022-10-16T13:56:22.733Z,101079.84
2022-10-16T13:59:03.609Z,101063.00
2022-10-16T14:01:33.019Z,101030.94
2022-10-16T14:04:07.236Z,101074.69
2022-10-16T14:06:34.391Z,101086.97
2022-10-16T14:09:08.587Z,101080.56
2022-10-16T14:11:45.563Z,101039.09
2022-10-16T14:14:16.040Z,101043.25
2022-10-16T14:16:44.107Z,101086.16
2022-10-16T14:19:25.896Z,101063.81
2022-10-16T14:21:55.372Z,101039.59
2022-10-16T14:24:35.424Z,101080.56
2022-10-16T14:27:02.888Z,101082.66
2022-10-16T14:29:32.998Z,101077.94
2022-10-16T14:32:05.499Z,101077.94
2022-10-16T14:34:41.144Z,101086.22
2022-10-16T14:37:17.077Z,101091.19
2022-10-16T14:39:51.199Z,101037.69
2022-10-16T14:42:20.374Z,101088.91
2022-10-16T14:44:51.847Z,101038.22
2022-10-16T14:47:25.278Z,101008.78
2022-10-16T14:49:54.074Z,101060.38
2022-10-16T14:52:22.855Z,100963.56
2022-10-16T14:54:55.634Z,100899.16
2022-10-16T14:57:30.350Z,101091.56
2022-10-16T14:59:59.760Z,100995.38
2022-10-16T15:02:31.486Z,101096.75
2022-10-16T15:05:04.815Z,101091.84
2022-10-16T15:07:31.522Z,101094.84
2022-10-16T15:09:59.491Z,101096.00
2022-10-16T15:12:26.231Z,101050.53
2022-10-16T15:14:52.936Z,101031.25
2022-10-16T15:17:22.270Z,101022.66
2022-10-16T15:19:49.121Z,100994.53
2022-10-16T15:22:15.914Z,100998.84
2022-10-16T15:24:45.015Z,100931.88
2022-10-16T15:27:11.811Z,101060.00
2022-10-16T15:29:38.558Z,101008.09
2022-10-16T15:32:12.769Z,101028.13
2022-10-16T15:34:42.114Z,101127.44
2022-10-16T15:37:14.749Z,101026.81
2022-10-16T15:39:41.625Z,101121.19
2022-10-16T15:42:10.784Z,100972.78
2022-10-16T15:44:37.555Z,101026.56
2022-10-16T15:47:05.448Z,101046.91
2022-10-16T15:49:32.145Z,101068.94
2022-10-16T15:51:58.885Z,101006.47
2022-10-16T15:54:30.444Z,101035.56
2022-10-16T15:56:57.270Z,100900.94
2022-10-16T15:59:23.945Z,100977.41
2022-10-16T16:01:50.721Z,101090.94
2022-10-16T16:04:39.156Z,101045.13
2022-10-16T16:07:08.346Z,101163.13
2022-10-16T16:09:39.988Z,101119.94
2022-10-16T16:12:06.721Z,101147.22
2022-10-16T16:14:33.447Z,101074.03
2022-10-16T16:17:00.336Z,101014.03
2022-10-16T16:19:27.028Z,101159.34
2022-10-16T16:21:56.092Z,101082.66
2022-10-16T16:24:22.780Z,101113.44
2022-10-16T16:26:51.747Z,101056.94
2022-10-16T16:29:18.496Z,101188.28
2022-10-16T16:31:45.417Z,101154.69
2022-10-16T16:34:17.224Z,101143.22
2022-10-16T16:36:51.307Z,101059.41
2022-10-16T16:39:18.960Z,101206.56
2022-10-16T16:41:48.067Z,101208.28
2022-10-16T16:44:17.517Z,101212.63
2022-10-16T16:46:44.932Z,101186.09
2022-10-16T16:49:15.298Z,101214.25
2022-10-16T16:51:45.581Z,101059.88
2022-10-16T16:54:14.999Z,101212.41
2022-10-16T16:56:44.042Z,101216.78
2022-10-16T16:59:18.799Z,101224.63
2022-10-16T17:01:45.569Z,101212.16
2022-10-16T17:04:14.326Z,101107.00
2022-10-16T17:06:46.228Z,101183.81
2022-10-16T17:09:17.786Z,101183.59
2022-10-16T17:11:45.590Z,101100.56
2022-10-16T17:14:15.225Z,101165.69
2022-10-16T17:16:44.883Z,101257.38
2022-10-16T17:19:19.046Z,101256.38
2022-10-16T17:21:46.220Z,101213.75
2022-10-16T17:24:18.542Z,101214.59
2022-10-16T17:26:49.110Z,101284.06
2022-10-16T17:29:18.221Z,101265.50
2022-10-16T17:31:45.567Z,101273.31
2022-10-16T17:34:12.859Z,101168.94
2022-10-16T17:36:46.837Z,101172.28
2022-10-16T17:39:15.256Z,101281.69
2022-10-16T17:41:45.152Z,101285.00
2022-10-16T17:44:19.588Z,101303.34
2022-10-16T17:46:51.611Z,101299.84
2022-10-16T17:49:21.089Z,101272.28
2022-10-16T17:51:53.673Z,101305.91
2022-10-16T17:54:23.008Z,101246.56
2022-10-16T17:56:49.841Z,101271.94
2022-10-16T17:59:16.523Z,101303.72
2022-10-16T18:01:47.674Z,101282.25
2022-10-16T18:04:18.387Z,101291.88
2022-10-16T18:06:47.925Z,101318.94
2022-10-16T18:09:18.537Z,101320.56
2022-10-16T18:11:52.493Z,101251.47
2022-10-16T18:14:24.071Z,101315.06
2022-10-16T18:16:52.873Z,101276.03
2022-10-16T18:19:22.858Z,101312.16
2022-10-16T18:21:52.027Z,101200.31
2022-10-16T18:24:21.792Z,101252.28
2022-10-16T18:26:49.700Z,101317.88
2022-10-16T18:29:18.794Z,101218.59
2022-10-16T18:31:47.974Z,101298.81
2022-10-16T18:34:14.861Z,101328.84
2022-10-16T18:36:43.134Z,101327.91
2022-10-16T18:39:13.080Z,101252.59
2022-10-16T18:41:45.732Z,101350.41
2022-10-16T18:44:13.287Z,101189.38
2022-10-16T18:46:42.751Z,101342.28
2022-10-16T18:49:11.849Z,101232.38
2022-10-16T18:51:40.819Z,101250.06
2022-10-16T18:54:09.531Z,101270.53
2022-10-16T18:56:39.248Z,101336.66
2022-10-16T18:59:10.246Z,101351.34
2022-10-16T19:01:38.863Z,101181.31
2022-10-16T19:04:11.484Z,101256.56
2022-10-16T19:06:50.945Z,101249.34
2022-10-16T19:09:18.856Z,101348.47
2022-10-16T19:11:45.935Z,101344.09
2022-10-16T19:14:17.039Z,101219.94
2022-10-16T19:16:46.537Z,101348.47
2022-10-16T19:19:18.337Z,101224.19
2022-10-16T19:21:56.100Z,101223.28
2022-10-16T19:24:22.785Z,101191.34
2022-10-16T19:26:49.871Z,101303.44
2022-10-16T19:29:19.419Z,101349.69
2022-10-16T19:31:46.191Z,101355.50
2022-10-16T19:34:12.883Z,101264.53
2022-10-16T19:36:40.970Z,101357.38
2022-10-16T19:39:12.388Z,101370.38
2022-10-16T19:41:42.233Z,101300.81
2022-10-16T19:44:12.485Z,101384.06
2022-10-16T19:46:41.020Z,101384.91
2022-10-16T19:49:13.413Z,101224.09
2022-10-16T19:51:40.426Z,101246.16
2022-10-16T19:54:12.874Z,101380.09
2022-10-16T19:56:42.834Z,101342.75
2022-10-16T19:59:13.330Z,101315.03
2022-10-16T20:01:45.415Z,101397.38
2022-10-16T20:04:13.051Z,101379.56
2022-10-16T20:06:40.021Z,101283.56
2022-10-16T20:09:06.832Z,101403.34
2022-10-16T20:11:52.416Z,101407.56
2022-10-16T20:14:33.038Z,101260.09
2022-10-16T20:17:00.026Z,101423.88
2022-10-16T20:19:29.258Z,101273.63
2022-10-16T20:21:55.952Z,101442.84
2022-10-16T20:24:27.866Z,101451.44
2022-10-16T20:27:01.321Z,101265.94
2022-10-16T20:29:28.182Z,101452.22
2022-10-16T20:31:57.129Z,101325.50
2022-10-16T20:34:26.035Z,101449.59
2022-10-16T20:36:53.043Z,101396.03
2022-10-16T20:39:20.540Z,101374.44
2022-10-16T20:41:50.307Z,101360.88
2022-10-16T20:44:17.101Z,101347.47
2022-10-16T20:46:46.489Z,101467.13
2022-10-16T20:49:28.520Z,101462.19
2022-10-16T20:52:02.333Z,101476.13
2022-10-16T20:54:29.080Z,101411.88
2022-10-16T20:56:58.243Z,101448.31
2022-10-16T20:59:29.541Z,101456.16
2022-10-16T21:01:58.641Z,101432.06
2022-10-16T21:04:25.443Z,101481.56
2022-10-16T21:06:52.136Z,101432.53
2022-10-16T21:09:18.809Z,101479.59
2022-10-16T21:11:48.571Z,101487.41
2022-10-16T21:14:15.460Z,101465.81
2022-10-16T21:16:42.132Z,101441.97
2022-10-16T21:19:08.844Z,101504.72
2022-10-16T21:21:40.032Z,101432.91
2022-10-16T21:24:13.706Z,101448.97
2022-10-16T21:26:43.849Z,101481.63
2022-10-16T21:29:13.932Z,101491.31
2022-10-16T21:31:43.844Z,101491.19
2022-10-16T21:34:10.581Z,101492.59
2022-10-16T21:36:39.880Z,101487.88
2022-10-16T21:39:13.014Z,101486.94
2022-10-16T21:41:40.850Z,101390.88
2022-10-16T21:44:10.516Z,101495.84
2022-10-16T21:46:41.004Z,101482.41
2022-10-16T21:49:13.618Z,101498.38
2022-10-16T21:51:43.438Z,101424.81
2022-10-16T21:54:18.452Z,101500.09
2022-10-16T21:56:45.868Z,101494.78
2022-10-16T21:59:15.662Z,101396.56
2022-10-16T22:01:43.168Z,101500.56
2022-10-16T22:04:13.942Z,101480.72
2022-10-16T22:06:43.354Z,101510.06
2022-10-16T22:09:14.324Z,101514.28
2022-10-16T22:11:42.998Z,101518.47
2022-10-16T22:14:14.990Z,101513.06
2022-10-16T22:16:42.246Z,101477.25
2022-10-16T22:19:09.283Z,101499.47
2022-10-16T22:21:38.027Z,101512.16
2022-10-16T22:24:08.413Z,101530.94
2022-10-16T22:26:38.827Z,101498.88
2022-10-16T22:29:06.779Z,101526.44
2022-10-16T22:31:34.027Z,101525.47
2022-10-16T22:34:03.057Z,101524.59
2022-10-16T22:36:30.018Z,101513.84
2022-10-16T22:38:57.087Z,101527.09
2022-10-16T22:41:26.203Z,101496.72
2022-10-16T22:43:53.456Z,101524.81
2022-10-16T22:46:23.131Z,101525.63
2022-10-16T22:48:52.595Z,101535.78
2022-10-16T22:51:22.069Z,101532.44
2022-10-16T22:53:51.247Z,101390.81
2022-10-16T22:56:22.341Z,101545.59
2022-10-16T22:58:50.173Z,101551.59
2022-10-16T23:01:25.989Z,101545.53
2022-10-16T23:03:57.432Z,101485.94
2022-10-16T23:06:24.747Z,101552.47
2022-10-16T23:08:52.822Z,101556.69
2022-10-16T23:11:19.518Z,101510.38
2022-10-16T23:13:48.451Z,101536.22
2022-10-16T23:16:16.946Z,101557.44
2022-10-16T23:18:44.570Z,101379.34
2022-10-16T23:21:16.307Z,101571.25
2022-10-16T23:23:43.494Z,101442.03
2022-10-16T23:26:15.912Z,101577.16
2022-10-16T23:28:43.022Z,101556.72
2022-10-16T23:31:10.832Z,101444.50
2022-10-16T23:33:38.096Z,101568.28
2022-10-16T23:36:06.904Z,101445.34
2022-10-16T23:38:33.552Z,101553.88
2022-10-16T23:41:00.547Z,101567.06
2022-10-16T23:43:30.464Z,101578.28
2022-10-16T23:45:57.527Z,101501.59
2022-10-16T23:48:24.687Z,101518.50
2022-10-16T23:50:51.448Z,101582.38
2022-10-16T23:53:20.837Z,101391.94
2022-10-16T23:55:49.774Z,101568.22
2022-10-16T23:58:19.159Z,101570.91
